sensor_id;sensor_type;location;lat;lon;timestamp;temperature;humidity
76102;SHT30;64830;46.910;6.354;2023-08-06T00:01:24;14.63;76.61
76102;SHT30;64830;46.910;6.354;2023-08-06T00:03:50;14.59;76.74
76102;SHT30;64830;46.910;6.354;2023-08-06T00:06:16;14.60;77.49
76102;SHT30;64830;46.910;6.354;2023-08-06T00:08:42;14.59;77.67
76102;SHT30;64830;46.910;6.354;2023-08-06T00:11:07;14.59;77.94
76102;SHT30;64830;46.910;6.354;2023-08-06T00:13:32;14.57;77.70
76102;SHT30;64830;46.910;6.354;2023-08-06T00:16:13;14.59;77.94
76102;SHT30;64830;46.910;6.354;2023-08-06T00:18:39;14.56;77.75
76102;SHT30;64830;46.910;6.354;2023-08-06T00:21:05;14.52;78.01
76102;SHT30;64830;46.910;6.354;2023-08-06T00:23:31;14.50;78.05
76102;SHT30;64830;46.910;6.354;2023-08-06T00:25:56;14.45;77.90
76102;SHT30;64830;46.910;6.354;2023-08-06T00:28:21;14.40;78.08
76102;SHT30;64830;46.910;6.354;2023-08-06T00:30:55;14.36;77.99
76102;SHT30;64830;46.910;6.354;2023-08-06T00:33:21;14.39;78.45
76102;SHT30;64830;46.910;6.354;2023-08-06T00:35:47;14.38;78.39
76102;SHT30;64830;46.910;6.354;2023-08-06T00:38:12;14.35;78.14
76102;SHT30;64830;46.910;6.354;2023-08-06T00:40:38;14.36;77.90
76102;SHT30;64830;46.910;6.354;2023-08-06T00:43:04;14.35;78.07
76102;SHT30;64830;46.910;6.354;2023-08-06T00:45:30;14.33;78.08
76102;SHT30;64830;46.910;6.354;2023-08-06T00:47:59;14.32;78.43
76102;SHT30;64830;46.910;6.354;2023-08-06T00:50:25;14.29;78.27
76102;SHT30;64830;46.910;6.354;2023-08-06T00:52:53;14.24;78.49
76102;SHT30;64830;46.910;6.354;2023-08-06T00:55:19;14.18;78.74
76102;SHT30;64830;46.910;6.354;2023-08-06T00:57:44;14.17;78.72
76102;SHT30;64830;46.910;6.354;2023-08-06T01:00:10;14.07;78.54
76102;SHT30;64830;46.910;6.354;2023-08-06T01:02:37;14.08;78.69
76102;SHT30;64830;46.910;6.354;2023-08-06T01:05:02;14.05;78.80
76102;SHT30;64830;46.910;6.354;2023-08-06T01:07:45;14.08;78.96
76102;SHT30;64830;46.910;6.354;2023-08-06T01:13:33;14.07;79.00
76102;SHT30;64830;46.910;6.354;2023-08-06T01:16:03;14.03;79.38
76102;SHT30;64830;46.910;6.354;2023-08-06T01:18:30;14.00;79.74
76102;SHT30;64830;46.910;6.354;2023-08-06T01:20:56;14.03;80.47
76102;SHT30;64830;46.910;6.354;2023-08-06T01:23:22;14.01;80.10
76102;SHT30;64830;46.910;6.354;2023-08-06T01:26:05;14.01;79.85
76102;SHT30;64830;46.910;6.354;2023-08-06T01:29:05;14.03;79.96
76102;SHT30;64830;46.910;6.354;2023-08-06T01:31:37;14.01;79.89
76102;SHT30;64830;46.910;6.354;2023-08-06T01:34:07;14.03;80.03
76102;SHT30;64830;46.910;6.354;2023-08-06T01:36:34;14.00;80.42
76102;SHT30;64830;46.910;6.354;2023-08-06T01:39:00;13.90;80.84
76102;SHT30;64830;46.910;6.354;2023-08-06T01:41:26;13.87;81.05
76102;SHT30;64830;46.910;6.354;2023-08-06T01:43:51;13.87;80.92
76102;SHT30;64830;46.910;6.354;2023-08-06T01:46:17;13.86;81.52
76102;SHT30;64830;46.910;6.354;2023-08-06T01:48:42;13.81;81.13
76102;SHT30;64830;46.910;6.354;2023-08-06T01:51:08;13.81;81.27
76102;SHT30;64830;46.910;6.354;2023-08-06T01:53:34;13.81;81.79
76102;SHT30;64830;46.910;6.354;2023-08-06T01:55:59;13.78;81.65
76102;SHT30;64830;46.910;6.354;2023-08-06T01:58:25;13.76;81.81
76102;SHT30;64830;46.910;6.354;2023-08-06T02:00:50;13.71;81.92
76102;SHT30;64830;46.910;6.354;2023-08-06T02:03:16;13.65;81.61
76102;SHT30;64830;46.910;6.354;2023-08-06T02:05:41;13.63;81.88
76102;SHT30;64830;46.910;6.354;2023-08-06T02:08:07;13.56;81.87
76102;SHT30;64830;46.910;6.354;2023-08-06T02:10:32;13.50;81.99
76102;SHT30;64830;46.910;6.354;2023-08-06T02:12:58;13.49;81.87
76102;SHT30;64830;46.910;6.354;2023-08-06T02:15:23;13.43;81.88
76102;SHT30;64830;46.910;6.354;2023-08-06T02:17:49;13.42;81.69
76102;SHT30;64830;46.910;6.354;2023-08-06T02:20:14;13.42;81.68
76102;SHT30;64830;46.910;6.354;2023-08-06T02:22:39;13.41;81.71
76102;SHT30;64830;46.910;6.354;2023-08-06T02:25:05;13.41;81.75
76102;SHT30;64830;46.910;6.354;2023-08-06T02:27:30;13.41;81.83
76102;SHT30;64830;46.910;6.354;2023-08-06T02:29:56;13.41;82.04
76102;SHT30;64830;46.910;6.354;2023-08-06T02:32:21;13.38;81.92
76102;SHT30;64830;46.910;6.354;2023-08-06T02:34:47;13.34;82.34
76102;SHT30;64830;46.910;6.354;2023-08-06T02:37:12;13.26;82.18
76102;SHT30;64830;46.910;6.354;2023-08-06T02:39:38;13.22;82.60
76102;SHT30;64830;46.910;6.354;2023-08-06T02:42:06;13.18;82.59
76102;SHT30;64830;46.910;6.354;2023-08-06T02:44:32;13.14;82.20
76102;SHT30;64830;46.910;6.354;2023-08-06T02:46:58;13.10;82.22
76102;SHT30;64830;46.910;6.354;2023-08-06T02:49:24;13.05;82.16
76102;SHT30;64830;46.910;6.354;2023-08-06T02:51:49;13.00;82.46
76102;SHT30;64830;46.910;6.354;2023-08-06T02:54:15;13.00;82.12
76102;SHT30;64830;46.910;6.354;2023-08-06T02:56:43;12.98;82.33
76102;SHT30;64830;46.910;6.354;2023-08-06T02:59:09;12.94;82.15
76102;SHT30;64830;46.910;6.354;2023-08-06T03:01:35;12.87;82.30
76102;SHT30;64830;46.910;6.354;2023-08-06T03:04:01;12.83;82.42
76102;SHT30;64830;46.910;6.354;2023-08-06T03:06:27;12.83;82.31
76102;SHT30;64830;46.910;6.354;2023-08-06T03:08:52;12.76;81.33
76102;SHT30;64830;46.910;6.354;2023-08-06T03:11:18;12.63;80.37
76102;SHT30;64830;46.910;6.354;2023-08-06T03:13:43;12.43;80.58
76102;SHT30;64830;46.910;6.354;2023-08-06T03:16:08;12.28;80.37
76102;SHT30;64830;46.910;6.354;2023-08-06T03:18:34;12.11;80.99
76102;SHT30;64830;46.910;6.354;2023-08-06T03:20:59;12.00;81.50
76102;SHT30;64830;46.910;6.354;2023-08-06T03:23:25;11.89;81.90
76102;SHT30;64830;46.910;6.354;2023-08-06T03:25:50;11.84;81.92
76102;SHT30;64830;46.910;6.354;2023-08-06T03:28:16;11.74;81.79
76102;SHT30;64830;46.910;6.354;2023-08-06T03:30:41;11.66;82.09
76102;SHT30;64830;46.910;6.354;2023-08-06T03:33:07;11.59;82.31
76102;SHT30;64830;46.910;6.354;2023-08-06T03:35:32;11.58;82.37
76102;SHT30;64830;46.910;6.354;2023-08-06T03:37:58;11.51;82.49
76102;SHT30;64830;46.910;6.354;2023-08-06T03:40:23;11.45;82.88
76102;SHT30;64830;46.910;6.354;2023-08-06T03:42:48;11.42;82.66
76102;SHT30;64830;46.910;6.354;2023-08-06T03:45:14;11.40;82.87
76102;SHT30;64830;46.910;6.354;2023-08-06T03:47:40;11.39;82.64
76102;SHT30;64830;46.910;6.354;2023-08-06T03:50:06;11.43;82.62
76102;SHT30;64830;46.910;6.354;2023-08-06T03:52:31;11.45;82.64
76102;SHT30;64830;46.910;6.354;2023-08-06T03:54:57;11.43;82.44
76102;SHT30;64830;46.910;6.354;2023-08-06T03:57:22;11.43;82.60
76102;SHT30;64830;46.910;6.354;2023-08-06T03:59:48;11.43;82.68
76102;SHT30;64830;46.910;6.354;2023-08-06T04:02:13;11.42;82.77
76102;SHT30;64830;46.910;6.354;2023-08-06T04:04:39;11.45;82.31
76102;SHT30;64830;46.910;6.354;2023-08-06T04:07:04;11.45;82.50
76102;SHT30;64830;46.910;6.354;2023-08-06T04:09:30;11.46;82.43
76102;SHT30;64830;46.910;6.354;2023-08-06T04:11:55;11.42;82.70
76102;SHT30;64830;46.910;6.354;2023-08-06T04:14:21;11.36;82.63
76102;SHT30;64830;46.910;6.354;2023-08-06T04:16:47;11.32;82.76
76102;SHT30;64830;46.910;6.354;2023-08-06T04:19:12;11.32;82.61
76102;SHT30;64830;46.910;6.354;2023-08-06T04:21:37;11.27;82.76
76102;SHT30;64830;46.910;6.354;2023-08-06T04:24:03;11.25;82.83
76102;SHT30;64830;46.910;6.354;2023-08-06T04:26:28;11.27;82.90
76102;SHT30;64830;46.910;6.354;2023-08-06T04:28:54;11.24;82.95
76102;SHT30;64830;46.910;6.354;2023-08-06T04:31:20;11.24;83.12
76102;SHT30;64830;46.910;6.354;2023-08-06T04:33:46;11.19;83.16
76102;SHT30;64830;46.910;6.354;2023-08-06T04:36:11;11.19;83.36
76102;SHT30;64830;46.910;6.354;2023-08-06T04:38:37;11.19;83.14
76102;SHT30;64830;46.910;6.354;2023-08-06T04:41:03;11.22;83.11
76102;SHT30;64830;46.910;6.354;2023-08-06T04:43:29;11.22;83.23
76102;SHT30;64830;46.910;6.354;2023-08-06T04:45:54;11.22;83.24
76102;SHT30;64830;46.910;6.354;2023-08-06T04:48:21;11.21;83.14
76102;SHT30;64830;46.910;6.354;2023-08-06T04:50:48;11.22;83.46
76102;SHT30;64830;46.910;6.354;2023-08-06T04:53:14;11.21;83.33
76102;SHT30;64830;46.910;6.354;2023-08-06T04:55:40;11.22;83.21
76102;SHT30;64830;46.910;6.354;2023-08-06T04:58:06;11.19;83.26
76102;SHT30;64830;46.910;6.354;2023-08-06T05:00:31;11.18;83.24
76102;SHT30;64830;46.910;6.354;2023-08-06T05:02:59;11.18;83.24
76102;SHT30;64830;46.910;6.354;2023-08-06T05:05:26;11.17;83.13
76102;SHT30;64830;46.910;6.354;2023-08-06T05:07:55;11.18;83.28
76102;SHT30;64830;46.910;6.354;2023-08-06T05:10:21;11.19;83.19
76102;SHT30;64830;46.910;6.354;2023-08-06T05:12:47;11.19;83.10
76102;SHT30;64830;46.910;6.354;2023-08-06T05:15:12;11.22;83.12
76102;SHT30;64830;46.910;6.354;2023-08-06T05:17:37;11.25;83.48
76102;SHT30;64830;46.910;6.354;2023-08-06T05:20:03;11.22;83.68
76102;SHT30;64830;46.910;6.354;2023-08-06T05:22:29;11.19;83.77
76102;SHT30;64830;46.910;6.354;2023-08-06T05:24:55;11.19;84.15
76102;SHT30;64830;46.910;6.354;2023-08-06T05:27:20;11.22;84.27
76102;SHT30;64830;46.910;6.354;2023-08-06T05:29:46;11.24;84.62
76102;SHT30;64830;46.910;6.354;2023-08-06T05:32:11;11.21;84.66
76102;SHT30;64830;46.910;6.354;2023-08-06T05:34:36;11.17;84.80
76102;SHT30;64830;46.910;6.354;2023-08-06T05:37:03;11.18;85.24
76102;SHT30;64830;46.910;6.354;2023-08-06T05:39:28;11.17;84.95
76102;SHT30;64830;46.910;6.354;2023-08-06T05:41:54;11.18;85.38
76102;SHT30;64830;46.910;6.354;2023-08-06T05:44:20;11.22;85.29
76102;SHT30;64830;46.910;6.354;2023-08-06T05:46:45;11.21;85.49
76102;SHT30;64830;46.910;6.354;2023-08-06T05:49:11;11.19;85.91
76102;SHT30;64830;46.910;6.354;2023-08-06T05:51:38;11.17;85.51
76102;SHT30;64830;46.910;6.354;2023-08-06T05:54:03;11.24;85.80
76102;SHT30;64830;46.910;6.354;2023-08-06T05:56:29;11.21;85.76
76102;SHT30;64830;46.910;6.354;2023-08-06T05:58:54;11.19;85.28
76102;SHT30;64830;46.910;6.354;2023-08-06T06:01:20;11.18;85.14
76102;SHT30;64830;46.910;6.354;2023-08-06T06:03:45;11.17;85.44
76102;SHT30;64830;46.910;6.354;2023-08-06T06:06:11;11.15;85.35
76102;SHT30;64830;46.910;6.354;2023-08-06T06:08:36;11.17;85.46
76102;SHT30;64830;46.910;6.354;2023-08-06T06:11:02;11.22;85.34
76102;SHT30;64830;46.910;6.354;2023-08-06T06:13:27;11.22;85.39
76102;SHT30;64830;46.910;6.354;2023-08-06T06:15:55;11.24;85.44
76102;SHT30;64830;46.910;6.354;2023-08-06T06:18:22;11.21;85.40
76102;SHT30;64830;46.910;6.354;2023-08-06T06:20:47;11.24;85.33
76102;SHT30;64830;46.910;6.354;2023-08-06T06:23:13;11.21;85.77
76102;SHT30;64830;46.910;6.354;2023-08-06T06:25:57;11.18;85.27
76102;SHT30;64830;46.910;6.354;2023-08-06T06:28:22;11.17;85.38
76102;SHT30;64830;46.910;6.354;2023-08-06T06:30:48;11.15;85.47
76102;SHT30;64830;46.910;6.354;2023-08-06T06:33:13;11.12;85.38
76102;SHT30;64830;46.910;6.354;2023-08-06T06:35:38;11.08;85.83
76102;SHT30;64830;46.910;6.354;2023-08-06T06:38:04;11.08;85.77
76102;SHT30;64830;46.910;6.354;2023-08-06T06:40:29;11.06;85.88
76102;SHT30;64830;46.910;6.354;2023-08-06T06:42:55;11.03;85.76
76102;SHT30;64830;46.910;6.354;2023-08-06T06:45:20;11.06;85.69
76102;SHT30;64830;46.910;6.354;2023-08-06T06:47:45;11.06;85.53
76102;SHT30;64830;46.910;6.354;2023-08-06T06:50:11;11.08;85.71
76102;SHT30;64830;46.910;6.354;2023-08-06T06:52:37;11.07;84.81
76102;SHT30;64830;46.910;6.354;2023-08-06T06:55:02;11.04;85.00
76102;SHT30;64830;46.910;6.354;2023-08-06T06:57:28;10.99;85.09
76102;SHT30;64830;46.910;6.354;2023-08-06T06:59:53;10.94;85.35
76102;SHT30;64830;46.910;6.354;2023-08-06T07:02:19;10.99;85.33
76102;SHT30;64830;46.910;6.354;2023-08-06T07:04:44;10.96;85.40
76102;SHT30;64830;46.910;6.354;2023-08-06T07:07:09;10.99;85.49
76102;SHT30;64830;46.910;6.354;2023-08-06T07:09:36;11.01;84.75
76102;SHT30;64830;46.910;6.354;2023-08-06T07:12:02;10.97;84.78
76102;SHT30;64830;46.910;6.354;2023-08-06T07:14:28;10.97;84.87
76102;SHT30;64830;46.910;6.354;2023-08-06T07:16:54;10.99;85.29
76102;SHT30;64830;46.910;6.354;2023-08-06T07:19:19;11.00;85.00
76102;SHT30;64830;46.910;6.354;2023-08-06T07:21:45;10.99;85.57
76102;SHT30;64830;46.910;6.354;2023-08-06T07:24:10;10.99;85.51
76102;SHT30;64830;46.910;6.354;2023-08-06T07:26:36;10.94;85.40
76102;SHT30;64830;46.910;6.354;2023-08-06T07:29:02;10.93;85.47
76102;SHT30;64830;46.910;6.354;2023-08-06T07:31:28;10.94;85.62
76102;SHT30;64830;46.910;6.354;2023-08-06T07:33:53;11.01;85.58
76102;SHT30;64830;46.910;6.354;2023-08-06T07:36:19;11.04;85.09
76102;SHT30;64830;46.910;6.354;2023-08-06T07:38:44;11.07;84.84
76102;SHT30;64830;46.910;6.354;2023-08-06T07:41:10;11.11;85.16
76102;SHT30;64830;46.910;6.354;2023-08-06T07:43:35;11.10;84.91
76102;SHT30;64830;46.910;6.354;2023-08-06T07:46:01;11.11;84.71
76102;SHT30;64830;46.910;6.354;2023-08-06T07:48:27;11.08;84.48
76102;SHT30;64830;46.910;6.354;2023-08-06T07:50:53;11.08;84.89
76102;SHT30;64830;46.910;6.354;2023-08-06T07:53:24;11.08;84.95
76102;SHT30;64830;46.910;6.354;2023-08-06T07:55:53;11.11;84.55
76102;SHT30;64830;46.910;6.354;2023-08-06T07:58:19;11.11;84.06
76102;SHT30;64830;46.910;6.354;2023-08-06T08:00:45;11.04;84.14
76102;SHT30;64830;46.910;6.354;2023-08-06T08:03:15;11.03;84.50
76102;SHT30;64830;46.910;6.354;2023-08-06T08:05:42;11.03;84.68
76102;SHT30;64830;46.910;6.354;2023-08-06T08:08:07;11.03;84.92
76102;SHT30;64830;46.910;6.354;2023-08-06T08:10:33;11.07;84.84
76102;SHT30;64830;46.910;6.354;2023-08-06T08:13:03;11.10;84.87
76102;SHT30;64830;46.910;6.354;2023-08-06T08:15:30;11.12;85.17
76102;SHT30;64830;46.910;6.354;2023-08-06T08:17:56;11.18;85.09
76102;SHT30;64830;46.910;6.354;2023-08-06T08:20:21;11.18;84.98
76102;SHT30;64830;46.910;6.354;2023-08-06T08:22:47;11.18;85.08
76102;SHT30;64830;46.910;6.354;2023-08-06T08:25:12;11.18;85.31
76102;SHT30;64830;46.910;6.354;2023-08-06T08:27:38;11.17;84.69
76102;SHT30;64830;46.910;6.354;2023-08-06T08:30:04;11.17;84.78
76102;SHT30;64830;46.910;6.354;2023-08-06T08:32:29;11.18;85.26
76102;SHT30;64830;46.910;6.354;2023-08-06T08:34:55;11.15;84.95
76102;SHT30;64830;46.910;6.354;2023-08-06T08:37:20;11.11;85.16
76102;SHT30;64830;46.910;6.354;2023-08-06T08:39:45;11.17;84.77
76102;SHT30;64830;46.910;6.354;2023-08-06T08:42:11;11.18;85.13
76102;SHT30;64830;46.910;6.354;2023-08-06T08:44:37;11.22;85.24
76102;SHT30;64830;46.910;6.354;2023-08-06T08:47:09;11.32;85.22
76102;SHT30;64830;46.910;6.354;2023-08-06T08:49:36;11.43;85.03
76102;SHT30;64830;46.910;6.354;2023-08-06T08:52:02;11.49;84.43
76102;SHT30;64830;46.910;6.354;2023-08-06T08:54:28;11.56;84.30
76102;SHT30;64830;46.910;6.354;2023-08-06T08:56:55;11.63;84.26
76102;SHT30;64830;46.910;6.354;2023-08-06T08:59:23;11.63;82.27
76102;SHT30;64830;46.910;6.354;2023-08-06T09:01:49;11.63;82.64
76102;SHT30;64830;46.910;6.354;2023-08-06T09:04:18;11.65;82.61
76102;SHT30;64830;46.910;6.354;2023-08-06T09:06:46;11.65;82.91
76102;SHT30;64830;46.910;6.354;2023-08-06T09:09:15;11.74;83.05
76102;SHT30;64830;46.910;6.354;2023-08-06T09:11:44;11.79;82.74
76102;SHT30;64830;46.910;6.354;2023-08-06T09:14:11;11.76;82.80
76102;SHT30;64830;46.910;6.354;2023-08-06T09:16:36;11.76;82.88
76102;SHT30;64830;46.910;6.354;2023-08-06T09:19:12;11.76;82.74
76102;SHT30;64830;46.910;6.354;2023-08-06T09:21:41;11.74;82.70
76102;SHT30;64830;46.910;6.354;2023-08-06T09:24:12;11.72;81.78
76102;SHT30;64830;46.910;6.354;2023-08-06T09:26:39;11.73;82.38
76102;SHT30;64830;46.910;6.354;2023-08-06T09:29:06;11.72;82.28
76102;SHT30;64830;46.910;6.354;2023-08-06T09:31:43;11.72;81.32
76102;SHT30;64830;46.910;6.354;2023-08-06T09:34:22;11.74;81.22
76102;SHT30;64830;46.910;6.354;2023-08-06T09:36:49;11.76;81.22
76102;SHT30;64830;46.910;6.354;2023-08-06T09:39:18;11.80;81.87
76102;SHT30;64830;46.910;6.354;2023-08-06T09:41:44;11.87;81.84
76102;SHT30;64830;46.910;6.354;2023-08-06T09:46:41;11.95;81.01
76102;SHT30;64830;46.910;6.354;2023-08-06T09:49:06;12.04;81.17
76102;SHT30;64830;46.910;6.354;2023-08-06T09:51:34;12.20;80.52
76102;SHT30;64830;46.910;6.354;2023-08-06T09:54:00;12.24;78.68
76102;SHT30;64830;46.910;6.354;2023-08-06T09:56:27;12.26;78.92
76102;SHT30;64830;46.910;6.354;2023-08-06T09:58:53;12.26;78.54
76102;SHT30;64830;46.910;6.354;2023-08-06T10:01:21;12.22;78.58
76102;SHT30;64830;46.910;6.354;2023-08-06T10:03:49;12.18;79.89
76102;SHT30;64830;46.910;6.354;2023-08-06T10:06:15;12.17;80.72
76102;SHT30;64830;46.910;6.354;2023-08-06T10:08:41;12.17;80.50
76102;SHT30;64830;46.910;6.354;2023-08-06T10:11:07;12.24;80.68
76102;SHT30;64830;46.910;6.354;2023-08-06T10:13:34;12.32;80.47
76102;SHT30;64830;46.910;6.354;2023-08-06T10:16:02;12.32;79.51
76102;SHT30;64830;46.910;6.354;2023-08-06T10:18:29;12.26;79.93
76102;SHT30;64830;46.910;6.354;2023-08-06T10:20:54;12.24;80.06
76102;SHT30;64830;46.910;6.354;2023-08-06T10:23:33;12.24;79.97
76102;SHT30;64830;46.910;6.354;2023-08-06T10:25:59;12.22;80.07
76102;SHT30;64830;46.910;6.354;2023-08-06T10:28:34;12.20;80.81
76102;SHT30;64830;46.910;6.354;2023-08-06T10:31:01;12.18;79.81
76102;SHT30;64830;46.910;6.354;2023-08-06T10:33:43;12.21;80.37
76102;SHT30;64830;46.910;6.354;2023-08-06T10:36:10;12.20;80.47
76102;SHT30;64830;46.910;6.354;2023-08-06T10:38:44;12.29;81.03
76102;SHT30;64830;46.910;6.354;2023-08-06T10:41:15;12.48;80.40
76102;SHT30;64830;46.910;6.354;2023-08-06T10:43:41;12.64;79.69
76102;SHT30;64830;46.910;6.354;2023-08-06T10:46:23;12.88;78.10
76102;SHT30;64830;46.910;6.354;2023-08-06T10:48:51;12.96;77.16
76102;SHT30;64830;46.910;6.354;2023-08-06T10:51:17;12.98;77.01
76102;SHT30;64830;46.910;6.354;2023-08-06T10:53:44;12.97;76.53
76102;SHT30;64830;46.910;6.354;2023-08-06T10:56:17;12.90;76.97
76102;SHT30;64830;46.910;6.354;2023-08-06T10:58:44;12.94;77.93
76102;SHT30;64830;46.910;6.354;2023-08-06T11:01:10;12.98;78.72
76102;SHT30;64830;46.910;6.354;2023-08-06T11:03:37;13.05;77.58
76102;SHT30;64830;46.910;6.354;2023-08-06T11:06:03;13.11;77.34
76102;SHT30;64830;46.910;6.354;2023-08-06T11:08:33;13.12;76.67
76102;SHT30;64830;46.910;6.354;2023-08-06T11:11:12;13.18;76.45
76102;SHT30;64830;46.910;6.354;2023-08-06T11:13:48;13.24;76.76
76102;SHT30;64830;46.910;6.354;2023-08-06T11:16:15;13.15;76.96
76102;SHT30;64830;46.910;6.354;2023-08-06T11:18:42;13.03;79.87
76102;SHT30;64830;46.910;6.354;2023-08-06T11:21:07;12.80;80.03
76102;SHT30;64830;46.910;6.354;2023-08-06T11:23:34;12.67;80.80
76102;SHT30;64830;46.910;6.354;2023-08-06T11:25:59;12.63;80.91
76102;SHT30;64830;46.910;6.354;2023-08-06T11:28:25;12.66;81.11
76102;SHT30;64830;46.910;6.354;2023-08-06T11:30:51;12.60;81.73
76102;SHT30;64830;46.910;6.354;2023-08-06T11:33:34;12.60;81.56
76102;SHT30;64830;46.910;6.354;2023-08-06T11:36:01;12.56;81.55
76102;SHT30;64830;46.910;6.354;2023-08-06T11:38:29;12.56;80.92
76102;SHT30;64830;46.910;6.354;2023-08-06T11:40:55;12.55;81.30
76102;SHT30;64830;46.910;6.354;2023-08-06T11:43:21;12.62;80.76
76102;SHT30;64830;46.910;6.354;2023-08-06T11:45:48;12.67;81.13
76102;SHT30;64830;46.910;6.354;2023-08-06T11:48:14;12.72;80.18
76102;SHT30;64830;46.910;6.354;2023-08-06T11:50:39;12.77;79.21
76102;SHT30;64830;46.910;6.354;2023-08-06T11:53:05;12.77;79.71
76102;SHT30;64830;46.910;6.354;2023-08-06T11:55:31;12.79;79.70
76102;SHT30;64830;46.910;6.354;2023-08-06T11:57:57;12.84;80.12
76102;SHT30;64830;46.910;6.354;2023-08-06T12:00:25;12.86;80.46
76102;SHT30;64830;46.910;6.354;2023-08-06T12:02:52;12.86;80.01
76102;SHT30;64830;46.910;6.354;2023-08-06T12:05:23;12.86;80.35
76102;SHT30;64830;46.910;6.354;2023-08-06T12:07:51;12.91;80.61
76102;SHT30;64830;46.910;6.354;2023-08-06T12:10:17;12.94;80.12
76102;SHT30;64830;46.910;6.354;2023-08-06T12:12:44;13.00;80.05
76102;SHT30;64830;46.910;6.354;2023-08-06T12:15:10;13.05;79.83
76102;SHT30;64830;46.910;6.354;2023-08-06T12:17:37;13.21;79.49
76102;SHT30;64830;46.910;6.354;2023-08-06T12:20:03;13.28;80.16
76102;SHT30;64830;46.910;6.354;2023-08-06T12:22:30;13.31;77.45
76102;SHT30;64830;46.910;6.354;2023-08-06T12:25:01;13.28;78.68
76102;SHT30;64830;46.910;6.354;2023-08-06T12:27:29;13.24;78.09
76102;SHT30;64830;46.910;6.354;2023-08-06T12:29:54;13.19;79.36
76102;SHT30;64830;46.910;6.354;2023-08-06T12:32:19;13.08;79.59
76102;SHT30;64830;46.910;6.354;2023-08-06T12:34:45;13.04;79.77
76102;SHT30;64830;46.910;6.354;2023-08-06T12:37:10;13.07;80.72
76102;SHT30;64830;46.910;6.354;2023-08-06T12:39:36;13.10;80.18
76102;SHT30;64830;46.910;6.354;2023-08-06T12:42:03;13.05;79.97
76102;SHT30;64830;46.910;6.354;2023-08-06T12:44:29;12.97;79.48
76102;SHT30;64830;46.910;6.354;2023-08-06T12:46:54;12.90;80.81
76102;SHT30;64830;46.910;6.354;2023-08-06T12:49:20;12.76;80.45
76102;SHT30;64830;46.910;6.354;2023-08-06T12:51:47;12.72;81.15
76102;SHT30;64830;46.910;6.354;2023-08-06T12:54:13;12.76;81.98
76102;SHT30;64830;46.910;6.354;2023-08-06T12:56:38;12.84;81.05
76102;SHT30;64830;46.910;6.354;2023-08-06T12:59:04;12.96;82.13
76102;SHT30;64830;46.910;6.354;2023-08-06T13:01:29;13.04;81.07
76102;SHT30;64830;46.910;6.354;2023-08-06T13:03:54;13.14;79.26
76102;SHT30;64830;46.910;6.354;2023-08-06T13:06:20;13.25;80.52
76102;SHT30;64830;46.910;6.354;2023-08-06T13:08:45;13.45;80.64
76102;SHT30;64830;46.910;6.354;2023-08-06T13:11:10;13.59;81.26
76102;SHT30;64830;46.910;6.354;2023-08-06T13:13:36;13.71;78.96
76102;SHT30;64830;46.910;6.354;2023-08-06T13:16:02;13.73;78.47
76102;SHT30;64830;46.910;6.354;2023-08-06T13:18:27;13.77;78.94
76102;SHT30;64830;46.910;6.354;2023-08-06T13:20:54;13.80;76.42
76102;SHT30;64830;46.910;6.354;2023-08-06T13:23:20;13.80;78.05
76102;SHT30;64830;46.910;6.354;2023-08-06T13:25:45;13.81;78.40
76102;SHT30;64830;46.910;6.354;2023-08-06T13:28:11;13.86;78.35
76102;SHT30;64830;46.910;6.354;2023-08-06T13:30:36;13.91;79.16
76102;SHT30;64830;46.910;6.354;2023-08-06T13:33:07;14.00;79.42
76102;SHT30;64830;46.910;6.354;2023-08-06T13:35:32;14.07;79.48
76102;SHT30;64830;46.910;6.354;2023-08-06T13:37:58;14.11;78.14
76102;SHT30;64830;46.910;6.354;2023-08-06T13:40:23;14.11;78.06
76102;SHT30;64830;46.910;6.354;2023-08-06T13:42:48;14.15;78.34
76102;SHT30;64830;46.910;6.354;2023-08-06T13:45:14;14.20;78.08
76102;SHT30;64830;46.910;6.354;2023-08-06T13:47:41;14.15;76.33
76102;SHT30;64830;46.910;6.354;2023-08-06T13:50:06;14.07;77.57
76102;SHT30;64830;46.910;6.354;2023-08-06T13:52:32;14.01;77.90
76102;SHT30;64830;46.910;6.354;2023-08-06T13:54:57;13.93;78.73
76102;SHT30;64830;46.910;6.354;2023-08-06T13:57:23;13.88;78.59
76102;SHT30;64830;46.910;6.354;2023-08-06T13:59:48;13.87;77.85
76102;SHT30;64830;46.910;6.354;2023-08-06T14:02:13;13.88;80.47
76102;SHT30;64830;46.910;6.354;2023-08-06T14:04:39;13.97;78.93
76102;SHT30;64830;46.910;6.354;2023-08-06T14:07:05;14.08;78.80
76102;SHT30;64830;46.910;6.354;2023-08-06T14:09:30;14.24;79.44
76102;SHT30;64830;46.910;6.354;2023-08-06T14:11:56;14.33;79.11
76102;SHT30;64830;46.910;6.354;2023-08-06T14:14:21;14.35;78.90
76102;SHT30;64830;46.910;6.354;2023-08-06T14:16:51;14.31;77.87
76102;SHT30;64830;46.910;6.354;2023-08-06T14:19:17;14.12;75.86
76102;SHT30;64830;46.910;6.354;2023-08-06T14:21:42;13.95;77.11
76102;SHT30;64830;46.910;6.354;2023-08-06T14:24:08;13.71;77.86
76102;SHT30;64830;46.910;6.354;2023-08-06T14:26:33;13.50;77.61
76102;SHT30;64830;46.910;6.354;2023-08-06T14:29:00;13.32;78.08
76102;SHT30;64830;46.910;6.354;2023-08-06T14:31:25;13.22;79.31
76102;SHT30;64830;46.910;6.354;2023-08-06T14:33:51;13.15;79.92
76102;SHT30;64830;46.910;6.354;2023-08-06T14:36:16;13.14;80.87
76102;SHT30;64830;46.910;6.354;2023-08-06T14:38:41;13.24;80.79
76102;SHT30;64830;46.910;6.354;2023-08-06T14:41:07;13.24;81.04
76102;SHT30;64830;46.910;6.354;2023-08-06T14:43:32;13.28;80.81
76102;SHT30;64830;46.910;6.354;2023-08-06T14:45:57;13.31;80.07
76102;SHT30;64830;46.910;6.354;2023-08-06T14:48:23;13.38;80.93
76102;SHT30;64830;46.910;6.354;2023-08-06T14:50:48;13.46;80.62
76102;SHT30;64830;46.910;6.354;2023-08-06T14:53:14;13.48;79.94
76102;SHT30;64830;46.910;6.354;2023-08-06T14:55:40;13.53;80.40
76102;SHT30;64830;46.910;6.354;2023-08-06T14:58:07;13.67;81.66
76102;SHT30;64830;46.910;6.354;2023-08-06T15:00:32;13.81;78.79
76102;SHT30;64830;46.910;6.354;2023-08-06T15:02:57;13.95;79.55
76102;SHT30;64830;46.910;6.354;2023-08-06T15:05:24;14.08;77.64
76102;SHT30;64830;46.910;6.354;2023-08-06T15:07:50;14.20;78.63
76102;SHT30;64830;46.910;6.354;2023-08-06T15:10:17;14.39;78.88
76102;SHT30;64830;46.910;6.354;2023-08-06T15:12:43;14.62;78.24
76102;SHT30;64830;46.910;6.354;2023-08-06T15:15:09;14.79;78.14
76102;SHT30;64830;46.910;6.354;2023-08-06T15:17:34;14.87;76.43
76102;SHT30;64830;46.910;6.354;2023-08-06T15:20:00;14.80;75.09
76102;SHT30;64830;46.910;6.354;2023-08-06T15:22:26;14.63;73.66
76102;SHT30;64830;46.910;6.354;2023-08-06T15:24:51;14.50;74.82
76102;SHT30;64830;46.910;6.354;2023-08-06T15:27:17;14.39;73.75
76102;SHT30;64830;46.910;6.354;2023-08-06T15:29:43;14.32;74.51
76102;SHT30;64830;46.910;6.354;2023-08-06T15:32:09;14.32;76.05